Pagrindinis puslapis
METAR-TAF:

METAR-TAF

Oro uostai :

Kvala Lumpūro tarptautinis oro uostas

Kvala Lumpūras, Malaizija

platuma: 02-44N, ilguma: 101-42E, Aukštis: 21 m

Dabartinis oras

Ataskaita buvo paskelbta 27 minutes, ne 05:30 UTC
Vėjas 8 kt iš Rytų/Šiaurės Rytų, svyruoja nuo Šiaurės ir Pietų/Pietryčių
Temperatūra 35°C
Drėgmė 42%
Slėgis 1011 hPa
Matomumas 10 km arba daugiau
Mažai debesys ne aukštis 1800 ft

METAR: WMKK 100530Z 07008KT 360V150 9999 FEW018 35/20 Q1011 NOSIG

Laikas: 13:57 (05:57 UTC)

Prognozė

Ataskaita buvo paskelbta 57 minutes, ne 05:00 UTC
Prognozė galioja nuo 10 metu 06 UTC su 11 metu 12 UTC
Vėjas 5 kt iš Pietų
Matomumas 10 km arba daugiau
Mažai debesys ne aukštis 1800 ft
Tapsmas
nuo 10 metu 12 UTC su 10 metu 13 UTC
Vėjas 5 kt iš Šiaurės Rytų
Mažai debesys ne aukštis 3000 ft
Tapsmas
nuo 10 metu 16 UTC su 10 metu 18 UTC
Mažai debesys ne aukštis 1700 ft, Liūtiniai kamuoliniai debesys.

TAF: WMKK 100500Z 1006/1112 17005KT 9999 FEW018 BECMG 1012/1013 05005KT FEW030 BECMG 1016/1018 FEW017CB

Orai ataskaitas ir orų prognozės (METAR, TAF).

turimą stotys yra geltonos ir raudonos taškus žemėlapyje.

Perkelti pele per norėdami pamatyti stoties vardą.

Tada spustelėkite, norėdami matyti oro stebėjimo ir prognozės.

Norėdami pakeisti žemėlapį: spustelėkite ant žalios mygtukų su juodo kryžiaus žemyn,; žalią mygtuką su brūkšneliu, jei norite nutolinti; arba žalių rodyklių gretimoms žemėlapius.


METAR-TAF: